Time;durP1;ratioP1;P1;durP2;ratioP2;P2;SDS_P1;SDS_P2;PMS_P1;PMS_P2;Temp;Humidity;BMP_temperature;BMP_pressure;BME280_temperature;BME280_humidity;BME280_pressure;Samples;Min_cycle;Max_cycle;Signal;HPM_P1;HPM_P2
2022/01/27 00:00:38;;;;;;;20.48;16.42;;;;;;;2.82;69.72;101528.25;10406728;28;20071;-71
2022/01/27 00:05:46;;;;;;;20.75;15.32;;;;;;;2.80;69.94;101527.41;10402157;28;20041;-71
2022/01/27 00:15:58;;;;;;;19.52;14.93;;;;;;;2.82;69.20;101522.97;10398732;28;20664;-70
2022/01/27 00:21:00;;;;;;;18.63;14.82;;;;;;;2.81;69.02;101501.97;10400866;28;20128;-70
2022/01/27 00:26:02;;;;;;;19.67;15.43;;;;;;;2.87;69.27;101503.56;10386566;28;20077;-70
2022/01/27 00:31:03;;;;;;;18.88;13.82;;;;;;;2.77;69.06;101481.94;10395146;28;20075;-70
2022/01/27 00:36:06;;;;;;;18.13;14.43;;;;;;;2.58;69.30;101476.31;10390211;28;20135;-68
2022/01/27 00:41:07;;;;;;;18.33;14.40;;;;;;;2.56;69.63;101472.88;10395737;28;20136;-70
2022/01/27 00:46:13;;;;;;;19.65;15.23;;;;;;;2.43;69.83;101473.22;10407188;28;20514;-70
2022/01/27 00:51:21;;;;;;;18.02;14.38;;;;;;;2.59;69.62;101481.53;10409633;28;20091;-69
2022/01/27 01:01:30;;;;;;;20.85;15.30;;;;;;;2.61;69.40;101481.47;10405428;28;20165;-70
2022/01/27 01:06:37;;;;;;;23.98;15.82;;;;;;;2.55;69.50;101473.78;10404056;28;20131;-71
2022/01/27 01:12:08;;;;;;;20.17;14.88;;;;;;;2.53;69.57;101475.59;10402284;28;20052;-69
2022/01/27 01:32:51;;;;;;;24.92;17.58;;;;;;;2.61;70.02;101476.22;10396107;28;20141;-69
2022/01/27 01:37:56;;;;;;;21.05;16.27;;;;;;;2.54;70.25;101485.19;10393637;28;20502;-69
2022/01/27 01:42:58;;;;;;;20.38;16.02;;;;;;;2.59;70.21;101484.16;10388199;28;20481;-70
2022/01/27 01:47:59;;;;;;;22.20;15.93;;;;;;;2.60;70.14;101471.91;10391360;28;20128;-71
2022/01/27 01:53:01;;;;;;;21.40;16.05;;;;;;;2.72;69.89;101463.66;10418555;28;20118;-70
2022/01/27 01:58:03;;;;;;;21.15;16.60;;;;;;;2.72;69.91;101455.78;10403117;28;20627;-69
2022/01/27 02:03:04;;;;;;;22.88;16.52;;;;;;;2.73;70.01;101439.09;10415431;28;20533;-69
2022/01/27 02:08:43;;;;;;;21.13;16.55;;;;;;;2.71;69.64;101443.50;10387031;28;20049;-70
2022/01/27 02:18:57;;;;;;;23.33;17.08;;;;;;;2.44;70.61;101422.34;10402664;28;20045;-70
2022/01/27 02:23:58;;;;;;;22.23;16.60;;;;;;;2.33;71.47;101416.56;10392522;28;20053;-71
2022/01/27 02:29:00;;;;;;;22.35;16.17;;;;;;;2.32;71.61;101404.31;10405974;28;20091;-70
2022/01/27 02:34:01;;;;;;;23.75;17.20;;;;;;;2.51;71.09;101393.28;10391050;28;20117;-70
2022/01/27 02:39:05;;;;;;;23.33;17.02;;;;;;;2.41;71.07;101396.16;10403176;28;20127;-70
2022/01/27 02:44:06;;;;;;;24.58;16.70;;;;;;;2.43;71.24;101399.63;10390045;28;20057;-70
2022/01/27 02:49:08;;;;;;;22.02;17.48;;;;;;;2.54;70.97;101411.56;10423929;28;20052;-71
2022/01/27 02:54:09;;;;;;;22.80;17.63;;;;;;;2.52;71.11;101401.09;10425507;28;20152;-71
2022/01/27 02:59:12;;;;;;;23.45;17.30;;;;;;;2.33;71.49;101387.66;10415273;28;20139;-72
2022/01/27 03:04:14;;;;;;;25.98;17.90;;;;;;;2.37;71.67;101388.41;10400289;28;20052;-70
2022/01/27 03:09:17;;;;;;;23.52;17.70;;;;;;;2.51;71.30;101388.00;10404320;28;20052;-70
2022/01/27 03:14:22;;;;;;;24.38;17.85;;;;;;;2.26;72.03;101386.09;10405546;28;20498;-70
2022/01/27 03:19:23;;;;;;;27.35;18.92;;;;;;;2.39;72.05;101366.44;10409828;28;20049;-71
2022/01/27 03:24:25;;;;;;;23.77;18.05;;;;;;;2.21;72.85;101377.50;10406442;28;20408;-70
2022/01/27 03:29:27;;;;;;;27.80;18.45;;;;;;;2.27;72.68;101374.69;10410188;28;20275;-70
2022/01/27 03:34:28;;;;;;;23.42;17.58;;;;;;;2.36;72.07;101371.78;10388310;28;20146;-71
2022/01/27 03:39:29;;;;;;;27.55;18.75;;;;;;;2.31;72.31;101350.03;10408592;28;20546;-71
2022/01/27 03:44:31;;;;;;;24.00;17.55;;;;;;;2.19;72.61;101332.88;10408230;28;20351;-71
2022/01/27 03:49:32;;;;;;;25.05;19.90;;;;;;;2.10;73.03;101333.97;10408579;28;20057;-70
2022/01/27 03:54:33;;;;;;;26.10;18.67;;;;;;;2.13;72.83;101340.91;10397123;28;20144;-70
2022/01/27 03:59:35;;;;;;;27.00;20.23;;;;;;;2.09;72.88;101345.38;10402267;28;20128;-70
2022/01/27 04:04:36;;;;;;;26.77;20.20;;;;;;;2.05;73.18;101346.38;10384864;28;20044;-69
2022/01/27 04:09:37;;;;;;;25.90;19.45;;;;;;;2.12;73.58;101362.84;10385298;28;20127;-70
2022/01/27 04:14:39;;;;;;;25.13;18.33;;;;;;;2.15;73.23;101356.59;10382404;28;20417;-68
2022/01/27 04:19:40;;;;;;;28.42;21.60;;;;;;;2.19;73.17;101369.66;10401847;28;20382;-70
2022/01/27 04:24:41;;;;;;;28.23;19.55;;;;;;;2.12;73.03;101355.81;10399591;28;20831;-69
2022/01/27 04:29:43;;;;;;;29.38;20.13;;;;;;;2.09;73.60;101342.75;10388422;28;20083;-70
2022/01/27 04:34:44;;;;;;;29.02;20.98;;;;;;;2.04;73.60;101328.03;10403918;28;20051;-69
2022/01/27 04:39:58;;;;;;;29.42;19.88;;;;;;;2.08;73.21;101321.78;10403776;28;20333;-70
2022/01/27 04:45:03;;;;;;;32.00;20.48;;;;;;;2.09;73.37;101332.25;10406395;28;20064;-70
2022/01/27 04:50:05;;;;;;;25.75;18.13;;;;;;;2.17;72.64;101318.03;10398593;28;20045;-69
2022/01/27 04:55:10;;;;;;;25.27;18.40;;;;;;;1.96;73.21;101312.47;10394045;28;20053;-72
2022/01/27 05:00:15;;;;;;;28.17;19.42;;;;;;;2.06;73.00;101303.44;10389766;28;20128;-70
2022/01/27 05:05:16;;;;;;;22.60;14.73;;;;;;;2.09;72.96;101321.75;10425273;28;20045;-69
2022/01/27 05:10:27;;;;;;;23.75;17.02;;;;;;;2.20;72.60;101328.47;10439968;28;20076;-70
2022/01/27 05:15:28;;;;;;;25.98;17.88;;;;;;;2.16;72.14;101334.69;10399499;28;20557;-70
2022/01/27 05:20:30;;;;;;;24.25;17.05;;;;;;;2.22;71.78;101322.28;10390557;28;20141;-69
2022/01/27 05:25:31;;;;;;;26.65;17.70;;;;;;;2.30;71.69;101324.66;10402526;28;20207;-70
2022/01/27 05:30:34;;;;;;;25.67;17.60;;;;;;;2.48;71.18;101332.00;10399074;28;20127;-71
2022/01/27 05:35:36;;;;;;;22.60;15.73;;;;;;;2.35;71.03;101328.00;10401343;28;20073;-70
2022/01/27 05:40:37;;;;;;;23.42;16.52;;;;;;;2.23;71.43;101323.13;10399371;28;20053;-70
2022/01/27 05:45:40;;;;;;;25.58;17.40;;;;;;;2.22;71.30;101345.03;10388246;28;20044;-70
2022/01/27 05:50:41;;;;;;;26.08;17.67;;;;;;;2.21;72.04;101351.22;10414103;28;20045;-71
2022/01/27 05:55:43;;;;;;;24.42;16.77;;;;;;;2.18;72.18;101351.28;10418600;28;20045;-70
2022/01/27 06:00:44;;;;;;;27.38;17.40;;;;;;;2.15;71.80;101356.59;10410597;28;20060;-70
2022/01/27 06:05:46;;;;;;;25.85;18.00;;;;;;;2.35;71.94;101354.28;10419124;28;20068;-71
2022/01/27 06:10:47;;;;;;;21.92;15.65;;;;;;;2.45;71.39;101349.66;10413733;28;20056;-71
2022/01/27 06:15:49;;;;;;;25.70;16.95;;;;;;;2.38;71.54;101342.84;10429459;28;20049;-71
2022/01/27 06:20:51;;;;;;;21.75;15.30;;;;;;;2.54;71.14;101353.75;10425050;28;20081;-70
2022/01/27 06:25:52;;;;;;;24.90;16.23;;;;;;;2.42;71.23;101332.19;10432773;28;20049;-71
2022/01/27 06:30:53;;;;;;;21.25;14.93;;;;;;;2.57;71.31;101338.75;10390592;28;20137;-70
2022/01/27 06:35:55;;;;;;;26.08;16.23;;;;;;;2.52;71.32;101335.41;10384796;28;20049;-68
2022/01/27 06:40:56;;;;;;;22.48;13.55;;;;;;;2.46;71.33;101328.56;10383029;28;20199;-69
2022/01/27 06:45:58;;;;;;;19.02;13.80;;;;;;;2.44;71.45;101321.63;10398884;28;20145;-70
2022/01/27 06:51:03;;;;;;;23.63;14.50;;;;;;;2.58;71.43;101313.31;10398767;28;20579;-69
2022/01/27 06:56:06;;;;;;;21.33;13.88;;;;;;;2.50;71.94;101307.47;10392722;28;20058;-69
2022/01/27 07:01:08;;;;;;;17.48;13.90;;;;;;;2.41;72.15;101285.78;10398554;28;20465;-69
2022/01/27 07:06:10;;;;;;;20.58;14.10;;;;;;;2.50;72.19;101289.06;10404068;28;20072;-70
2022/01/27 07:11:12;;;;;;;20.00;13.15;;;;;;;2.41;72.22;101275.28;10404803;28;20068;-70
2022/01/27 07:16:13;;;;;;;18.65;13.27;;;;;;;2.37;73.44;101271.03;10382040;28;20131;-73
2022/01/27 07:21:15;;;;;;;21.73;14.70;;;;;;;2.49;72.83;101264.53;10398474;28;20061;-69
2022/01/27 07:26:24;;;;;;;20.52;14.70;;;;;;;2.25;73.78;101250.34;10396785;28;20263;-69
2022/01/27 07:31:25;;;;;;;21.55;15.48;;;;;;;2.11;74.77;101242.91;10381433;28;20049;-67
2022/01/27 07:36:28;;;;;;;23.92;15.27;;;;;;;2.14;75.46;101240.19;10380982;28;20058;-69
2022/01/27 07:41:29;;;;;;;23.85;14.32;;;;;;;2.00;75.98;101235.34;10397316;28;20075;-69
2022/01/27 07:46:31;;;;;;;21.98;14.57;;;;;;;2.03;76.17;101230.00;10382470;28;20060;-70
2022/01/27 07:51:32;;;;;;;21.92;15.07;;;;;;;2.19;75.96;101225.16;10395823;28;20131;-68
2022/01/27 07:56:34;;;;;;;22.40;14.98;;;;;;;2.25;75.36;101229.34;10392196;28;20118;-70
2022/01/27 08:01:35;;;;;;;22.70;15.15;;;;;;;2.04;76.47;101218.59;10388910;28;20059;-70
2022/01/27 08:06:38;;;;;;;21.73;14.45;;;;;;;2.18;76.20;101225.19;10379674;28;20053;-71
2022/01/27 08:11:39;;;;;;;21.65;14.35;;;;;;;2.14;76.20;101210.44;10402150;28;20108;-70
2022/01/27 08:16:41;;;;;;;19.98;14.00;;;;;;;2.21;76.10;101211.97;10421736;28;20085;-70
2022/01/27 08:21:42;;;;;;;21.65;15.32;;;;;;;2.11;76.99;101209.59;10428451;28;20048;-71
2022/01/27 08:26:46;;;;;;;24.55;15.85;;;;;;;2.18;76.83;101196.28;10399955;28;20133;-68
2022/01/27 08:36:57;;;;;;;20.88;15.07;;;;;;;1.99;78.15;101207.34;10397339;28;20055;-69
2022/01/27 08:41:59;;;;;;;23.88;14.43;;;;;;;2.03;78.16;101206.34;10392494;28;20053;-69
2022/01/27 08:47:00;;;;;;;24.38;14.85;;;;;;;2.04;78.34;101202.84;10374422;28;20128;-69
2022/01/27 08:52:03;;;;;;;25.13;17.25;;;;;;;1.90;79.30;101205.00;10392620;28;20617;-70
2022/01/27 08:57:04;;;;;;;22.55;17.40;;;;;;;1.69;80.21;101222.22;10387821;28;20584;-71
2022/01/27 09:02:07;;;;;;;26.80;17.88;;;;;;;1.70;80.82;101224.81;10383838;28;20067;-71
2022/01/27 09:07:08;;;;;;;27.05;18.60;;;;;;;1.86;80.37;101208.59;10390693;28;20239;-72
2022/01/27 09:12:11;;;;;;;28.30;18.83;;;;;;;1.89;80.32;101205.88;10381296;28;20127;-69
2022/01/27 09:17:15;;;;;;;26.77;19.33;;;;;;;1.86;80.71;101200.72;10391374;28;20055;-70
2022/01/27 09:22:37;;;;;;;26.45;18.40;;;;;;;1.94;80.51;101196.13;10387747;28;20292;-69
2022/01/27 09:27:39;;;;;;;27.55;18.80;;;;;;;2.02;80.61;101194.13;10372875;28;20049;-69
2022/01/27 09:32:41;;;;;;;28.23;18.30;;;;;;;2.00;80.46;101185.44;10371319;28;20128;-68
2022/01/27 09:37:43;;;;;;;25.63;18.50;;;;;;;2.09;80.28;101174.66;10377977;28;20053;-72
2022/01/27 09:42:53;;;;;;;27.58;18.23;;;;;;;2.11;79.92;101172.81;10378289;28;20064;-70
2022/01/27 09:47:59;;;;;;;26.42;18.00;;;;;;;1.95;80.87;101161.06;10390716;28;20057;-71
2022/01/27 09:53:00;;;;;;;24.08;16.95;;;;;;;1.82;80.83;101171.09;10374153;28;20490;-71
2022/01/27 09:58:02;;;;;;;25.48;17.23;;;;;;;1.84;81.42;101168.41;10376077;28;20046;-69
2022/01/27 10:03:10;;;;;;;23.20;15.65;;;;;;;1.90;80.75;101184.00;10383033;28;20053;-71
2022/01/27 10:08:16;;;;;;;25.13;17.10;;;;;;;2.14;79.80;101176.28;10373966;28;20439;-70
2022/01/27 10:13:31;;;;;;;22.48;15.68;;;;;;;1.97;80.47;101168.91;10387596;28;20081;-70
2022/01/27 10:18:36;;;;;;;23.30;15.83;;;;;;;1.99;80.43;101157.44;10386810;28;20053;-69
2022/01/27 10:23:39;;;;;;;19.95;14.73;;;;;;;2.00;80.24;101168.81;10387208;28;20424;-71
2022/01/27 10:34:01;;;;;;;19.38;14.40;;;;;;;2.02;80.24;101162.59;10387160;28;20100;-69
2022/01/27 10:39:06;;;;;;;20.93;14.37;;;;;;;2.18;79.51;101156.88;10373936;28;20049;-69
2022/01/27 10:44:15;;;;;;;22.02;14.20;;;;;;;2.10;79.54;101136.97;10381483;28;20262;-69
2022/01/27 10:49:25;;;;;;;22.08;14.23;;;;;;;1.92;80.78;101141.03;10394418;28;20052;-69
2022/01/27 10:54:37;;;;;;;23.58;14.55;;;;;;;2.01;80.45;101129.41;10394958;28;20641;-69
2022/01/27 10:59:41;;;;;;;23.60;15.38;;;;;;;1.92;80.86;101140.16;10380305;28;20049;-71
2022/01/27 11:04:44;;;;;;;20.08;14.00;;;;;;;2.05;80.38;101130.16;10383196;28;21025;-71
2022/01/27 11:09:45;;;;;;;22.83;14.52;;;;;;;2.08;80.49;101141.41;10393983;28;20303;-71
2022/01/27 11:14:49;;;;;;;20.40;13.57;;;;;;;2.26;79.95;101112.84;10379433;28;20048;-70
2022/01/27 11:30:06;;;;;;;20.00;12.95;;;;;;;2.29;80.57;101115.38;10415374;28;20064;-73
2022/01/27 11:35:18;;;;;;;18.95;13.70;;;;;;;2.25;82.38;101083.09;10408885;28;20061;-68
2022/01/27 11:40:24;;;;;;;21.02;13.32;;;;;;;2.37;82.03;101084.47;10391050;28;20081;-70
2022/01/27 11:45:45;;;;;;;20.77;13.52;;;;;;;2.32;82.49;101075.84;10396055;28;20061;-71
2022/01/27 11:50:50;;;;;;;;;;;;;;;2.30;82.63;101075.91;10394929;28;20045;-71
2022/01/27 11:55:52;;;;;;;18.43;14.00;;;;;;;2.23;82.49;101063.03;10395852;28;19924;-69
2022/01/27 12:01:24;;;;;;;19.85;13.45;;;;;;;2.30;83.04;101067.19;10375036;28;20841;-69
2022/01/27 12:06:25;;;;;;;16.65;12.25;;;;;;;2.33;82.72;101055.69;10388310;28;20065;-70
2022/01/27 12:11:54;;;;;;;20.40;14.00;;;;;;;2.36;82.48;101064.34;10376989;28;20475;-69
2022/01/27 12:17:08;;;;;;;18.20;11.90;;;;;;;2.51;82.44;101070.84;10393040;28;20055;-70
2022/01/27 12:22:11;;;;;;;16.23;12.18;;;;;;;2.48;82.20;101066.56;10395031;28;20207;-71
2022/01/27 12:27:17;;;;;;;19.83;12.48;;;;;;;2.58;82.96;101055.72;10384132;28;20051;-72
2022/01/27 12:32:39;;;;;;;20.05;13.85;;;;;;;2.43;83.68;101039.59;10391307;28;20049;-72
2022/01/27 12:37:42;;;;;;;22.33;14.65;;;;;;;2.38;84.61;101038.88;10397939;28;20087;-71
2022/01/27 12:43:03;;;;;;;19.35;14.02;;;;;;;2.36;84.19;101030.19;10419904;28;20081;-71
2022/01/27 12:48:15;;;;;;;23.55;14.32;;;;;;;2.50;84.16;101027.06;10416841;28;20057;-71
2022/01/27 12:53:17;;;;;;;17.77;12.82;;;;;;;2.52;83.80;101008.63;10384132;28;20513;-71
2022/01/27 12:58:18;;;;;;;19.08;13.95;;;;;;;2.70;83.30;100991.34;10392727;28;20477;-71
2022/01/27 13:03:24;;;;;;;18.15;12.93;;;;;;;2.88;82.75;100992.44;10382420;28;20053;-70
2022/01/27 13:08:30;;;;;;;20.85;13.95;;;;;;;2.68;84.12;100987.91;10380018;28;20552;-72
2022/01/27 13:13:36;;;;;;;18.38;12.35;;;;;;;2.67;84.65;100976.53;10384904;28;20354;-71
2022/01/27 13:23:46;;;;;;;18.15;14.32;;;;;;;2.83;84.61;100988.22;10385409;28;20408;-70
2022/01/27 13:28:51;;;;;;;17.48;13.27;;;;;;;2.46;85.06;100979.03;10385944;28;20736;-72
2022/01/27 13:33:52;;;;;;;18.23;13.35;;;;;;;2.56;85.39;100973.44;10372970;28;20048;-70
2022/01/27 13:44:23;;;;;;;18.38;12.55;;;;;;;2.67;85.37;100987.03;10385039;28;20057;-68
2022/01/27 13:49:32;;;;;;;19.15;14.05;;;;;;;2.71;86.43;100978.16;10386747;28;20191;-70
2022/01/27 13:54:37;;;;;;;19.60;14.48;;;;;;;2.70;86.36;100958.00;10390702;28;20287;-69
2022/01/27 13:59:41;;;;;;;21.02;15.70;;;;;;;2.64;86.09;100947.72;10387160;28;20071;-70
2022/01/27 14:04:55;;;;;;;23.38;14.45;;;;;;;2.78;85.68;100969.13;10394718;28;20094;-71
2022/01/27 14:10:14;;;;;;;21.00;13.63;;;;;;;2.84;85.14;100949.63;10389558;28;20045;-70
2022/01/27 14:15:55;;;;;;;17.85;14.82;;;;;;;2.82;84.96;100954.97;10388516;28;20541;-72
2022/01/27 14:21:00;;;;;;;18.50;13.80;;;;;;;2.78;85.09;100963.88;10178809;28;20074;-70
2022/01/27 14:26:07;;;;;;;19.80;14.68;;;;;;;2.71;86.27;100965.00;10349074;28;20119;-72
2022/01/27 14:31:08;;;;;;;23.58;16.38;;;;;;;2.68;86.30;100962.47;10385966;28;20065;-69
2022/01/27 14:36:11;;;;;;;23.25;15.88;;;;;;;2.58;87.22;100951.47;10426805;28;20068;-70
2022/01/27 14:41:12;;;;;;;22.70;15.93;;;;;;;2.62;87.91;100953.03;10427393;28;20057;-71
2022/01/27 14:46:21;;;;;;;23.55;15.65;;;;;;;2.65;86.74;100952.06;10414420;28;20264;-70
2022/01/27 14:51:22;;;;;;;22.60;16.20;;;;;;;2.57;87.12;100954.16;10396737;28;20689;-70
2022/01/27 14:56:24;;;;;;;23.35;16.73;;;;;;;2.51;87.63;100952.59;10377917;28;20153;-71
2022/01/27 15:01:25;;;;;;;20.80;15.75;;;;;;;2.67;87.52;100942.34;10403562;28;20113;-70
2022/01/27 15:06:27;;;;;;;22.90;15.93;;;;;;;2.63;86.74;100938.16;10408537;28;20457;-71
2022/01/27 15:11:29;;;;;;;22.98;16.23;;;;;;;2.73;86.79;100955.31;10401965;28;20084;-70
2022/01/27 15:21:50;;;;;;;20.63;15.38;;;;;;;2.71;86.27;100957.09;10412473;28;20072;-69
2022/01/27 15:26:53;;;;;;;27.10;16.70;;;;;;;2.72;86.49;100958.84;10404955;28;20054;-71
2022/01/27 15:31:57;;;;;;;20.85;15.23;;;;;;;2.73;86.14;100957.94;10384861;28;20049;-71
2022/01/27 15:36:59;;;;;;;21.08;14.63;;;;;;;2.82;85.93;100954.97;10390424;28;20049;-71
2022/01/27 15:42:01;;;;;;;26.60;15.60;;;;;;;2.75;86.39;100947.34;10391543;28;20053;-70
2022/01/27 15:47:02;;;;;;;20.27;15.57;;;;;;;2.72;87.92;100936.94;10398054;28;20053;-70
2022/01/27 15:52:04;;;;;;;19.45;14.23;;;;;;;2.75;88.60;100937.69;10393054;28;20063;-69
2022/01/27 15:57:06;;;;;;;21.85;16.27;;;;;;;2.63;90.28;100927.63;10391084;28;20121;-69
2022/01/27 16:02:08;;;;;;;20.88;14.70;;;;;;;2.70;90.34;100944.03;10388965;28;20045;-70
2022/01/27 16:07:10;;;;;;;21.00;15.23;;;;;;;2.58;91.33;100935.69;10393600;28;20136;-70
2022/01/27 16:12:11;;;;;;;21.20;16.20;;;;;;;2.68;91.72;100930.94;10400355;28;20132;-71
2022/01/27 16:17:12;;;;;;;21.13;14.80;;;;;;;2.59;91.45;100936.53;10406666;28;20056;-71
2022/01/27 16:22:16;;;;;;;18.50;13.50;;;;;;;2.53;92.04;100931.50;10397597;28;20052;-73
2022/01/27 16:27:17;;;;;;;20.02;15.13;;;;;;;2.53;91.63;100921.00;10413311;28;20066;-70
2022/01/27 16:32:20;;;;;;;18.30;13.48;;;;;;;2.56;91.88;100926.13;10417150;28;20676;-71
2022/01/27 16:37:22;;;;;;;20.45;14.73;;;;;;;2.55;91.76;100934.91;10400750;28;20413;-69
2022/01/27 16:42:23;;;;;;;18.65;13.68;;;;;;;2.56;91.30;100926.13;10379101;28;20052;-70
2022/01/27 16:47:25;;;;;;;17.25;13.13;;;;;;;2.54;91.45;100920.06;10389797;28;20057;-69
2022/01/27 16:52:28;;;;;;;18.95;13.63;;;;;;;2.54;91.68;100936.69;10390678;28;20720;-69
2022/01/27 16:57:30;;;;;;;20.02;14.93;;;;;;;2.56;91.59;100926.13;10391168;28;20059;-69
2022/01/27 17:02:31;;;;;;;19.98;14.02;;;;;;;2.56;91.88;100932.22;10390946;28;20053;-70
2022/01/27 17:07:33;;;;;;;19.42;14.40;;;;;;;2.56;91.89;100928.75;10378486;28;20101;-71
2022/01/27 17:12:34;;;;;;;19.45;14.85;;;;;;;2.59;91.79;100944.41;10376226;28;20052;-70
2022/01/27 17:17:37;;;;;;;16.90;14.18;;;;;;;2.71;90.85;100951.00;10381810;28;20045;-70
2022/01/27 17:22:39;;;;;;;20.35;12.93;;;;;;;2.70;90.55;100954.53;10381451;28;20053;-72
2022/01/27 17:27:41;;;;;;;19.45;12.95;;;;;;;2.71;90.50;100928.19;10375563;28;20153;-70
2022/01/27 17:32:43;;;;;;;19.42;12.75;;;;;;;2.75;89.94;100919.28;10388976;28;20041;-69
2022/01/27 17:37:46;;;;;;;14.93;11.93;;;;;;;2.80;89.84;100930.47;10389879;28;20096;-71
2022/01/27 17:43:16;;;;;;;15.38;12.25;;;;;;;2.82;89.68;100933.91;10395586;28;20164;-70
2022/01/27 17:48:15;;;;;;;15.23;10.52;;;;;;;2.93;88.86;100937.94;10406523;28;20076;-70
2022/01/27 17:53:16;;;;;;;15.40;11.38;;;;;;;2.82;89.23;100933.91;10426482;28;21002;-69
2022/01/27 17:58:18;;;;;;;13.10;10.43;;;;;;;2.87;89.33;100930.25;10394231;28;20583;-70
2022/01/27 18:03:22;;;;;;;18.33;12.80;;;;;;;2.86;89.80;100928.53;10378728;28;20148;-70
2022/01/27 18:08:25;;;;;;;13.03;10.40;;;;;;;2.89;89.83;100924.00;10394192;28;20727;-70
2022/01/27 18:13:28;;;;;;;13.25;10.45;;;;;;;2.99;89.80;100930.66;10391348;28;20387;-72
2022/01/27 18:18:30;;;;;;;11.90;9.00;;;;;;;3.08;89.66;100931.19;10384639;28;20452;-72
2022/01/27 18:23:31;;;;;;;9.18;7.82;;;;;;;3.09;90.19;100939.06;10396876;28;20148;-71
2022/01/27 18:28:33;;;;;;;10.57;8.45;;;;;;;3.21;90.37;100934.22;10380996;28;20103;-72
2022/01/27 18:33:34;;;;;;;9.90;7.47;;;;;;;3.27;90.01;100939.25;10391196;28;20049;-70
2022/01/27 18:38:36;;;;;;;9.77;7.20;;;;;;;3.32;90.71;100906.56;10382311;28;20040;-71
2022/01/27 18:43:38;;;;;;;9.32;7.72;;;;;;;3.19;90.95;100906.19;10390326;28;20066;-71
2022/01/27 18:48:41;;;;;;;8.02;7.18;;;;;;;3.30;90.82;100911.06;10397244;28;20048;-72
2022/01/27 18:53:42;;;;;;;9.18;7.18;;;;;;;3.29;90.11;100911.13;10389512;28;20065;-71
2022/01/27 18:58:44;;;;;;;7.50;6.60;;;;;;;3.34;89.32;100909.13;10391573;28;20115;-71
2022/01/27 19:03:45;;;;;;;7.95;6.97;;;;;;;3.43;89.37;100924.56;10412938;28;20124;-72
2022/01/27 19:08:47;;;;;;;9.35;8.35;;;;;;;4.08;90.26;100927.16;10419481;28;20049;-72
2022/01/27 19:13:48;;;;;;;8.77;6.95;;;;;;;4.12;85.57;100918.22;10393852;28;20439;-71
2022/01/27 19:18:50;;;;;;;7.70;6.38;;;;;;;3.88;86.33;100922.75;10406426;28;20064;-69
2022/01/27 19:23:54;;;;;;;10.30;6.80;;;;;;;3.81;86.90;100910.75;10401445;28;20052;-71
2022/01/27 19:29:15;;;;;;;7.57;6.57;;;;;;;3.81;88.04;100945.84;10398854;28;20060;-69
2022/01/27 19:34:17;;;;;;;7.47;6.63;;;;;;;3.76;87.87;100936.44;10399632;28;20140;-70
2022/01/27 19:39:18;;;;;;;9.18;7.18;;;;;;;3.78;87.58;100940.69;10399135;28;20058;-71
2022/01/27 19:44:20;;;;;;;6.20;5.60;;;;;;;3.78;87.10;100951.22;10407640;28;20053;-71
2022/01/27 19:49:22;;;;;;;6.75;6.05;;;;;;;3.79;88.55;100966.13;10405362;28;20581;-70
2022/01/27 19:54:25;;;;;;;7.45;5.82;;;;;;;3.84;88.61;100966.81;10380417;28;20693;-72
2022/01/27 19:59:27;;;;;;;7.97;6.03;;;;;;;3.82;89.71;100968.63;10392583;28;20523;-72
2022/01/27 20:04:28;;;;;;;7.40;5.57;;;;;;;3.88;89.01;100981.53;10403725;28;20053;-71
2022/01/27 20:09:30;;;;;;;6.80;5.68;;;;;;;3.88;89.44;100984.16;10388277;28;20049;-72
2022/01/27 20:14:32;;;;;;;5.82;5.22;;;;;;;3.89;89.61;100987.69;10390500;28;20126;-72
2022/01/27 20:19:34;;;;;;;6.57;5.50;;;;;;;3.85;90.21;100986.94;10381979;28;20576;-71
2022/01/27 20:24:35;;;;;;;6.18;5.47;;;;;;;3.92;90.50;100994.59;10389602;28;20167;-71
2022/01/27 20:29:36;;;;;;;6.45;5.35;;;;;;;3.86;90.73;100995.72;10376492;28;20057;-70
2022/01/27 20:34:38;;;;;;;6.45;5.32;;;;;;;3.93;91.14;101006.84;10392954;28;20108;-71
2022/01/27 20:39:39;;;;;;;5.57;5.00;;;;;;;3.90;91.71;101010.44;10394199;28;20160;-74
2022/01/27 20:44:43;;;;;;;7.53;6.60;;;;;;;3.98;90.94;101016.28;10391625;28;20061;-72
2022/01/27 20:49:44;;;;;;;8.60;7.70;;;;;;;4.12;90.65;101039.41;10385021;28;20103;-72
2022/01/27 20:54:46;;;;;;;8.70;7.78;;;;;;;4.08;90.77;101043.09;10414253;28;20049;-73
2022/01/27 20:59:48;;;;;;;10.77;8.73;;;;;;;4.09;90.89;101060.63;10408483;28;20088;-72
2022/01/27 21:04:49;;;;;;;10.00;8.82;;;;;;;4.08;91.03;101064.16;10405758;28;20507;-70
2022/01/27 21:09:51;;;;;;;9.13;7.70;;;;;;;4.06;91.56;101082.69;10378462;28;20090;-71
2022/01/27 21:14:55;;;;;;;9.32;6.97;;;;;;;4.06;91.06;101081.84;10386458;28;20057;-72
2022/01/27 21:19:57;;;;;;;6.40;5.40;;;;;;;3.98;91.03;101086.53;10389896;28;20053;-71
2022/01/27 21:24:58;;;;;;;7.65;5.47;;;;;;;3.97;91.41;101087.47;10391181;28;20202;-69
2022/01/27 21:29:59;;;;;;;7.03;5.28;;;;;;;3.99;90.69;101083.00;10374722;28;20572;-68
2022/01/27 21:35:02;;;;;;;7.13;5.07;;;;;;;4.07;90.41;101088.81;10388860;28;20053;-72
2022/01/27 21:40:05;;;;;;;6.03;4.25;;;;;;;4.03;89.88;101089.84;10387004;28;20064;-69
2022/01/27 21:45:07;;;;;;;5.18;4.57;;;;;;;4.03;90.04;101092.50;10389974;28;20705;-74
2022/01/27 21:50:11;;;;;;;6.70;5.32;;;;;;;4.14;89.86;101095.53;10390290;28;20053;-71
2022/01/27 21:55:14;;;;;;;5.65;5.15;;;;;;;4.19;90.02;101083.06;10372229;28;20045;-72
2022/01/27 22:00:16;;;;;;;4.93;4.40;;;;;;;4.21;90.35;101075.09;10382677;28;20536;-72
2022/01/27 22:05:18;;;;;;;5.25;4.60;;;;;;;4.31;90.31;101086.09;10392869;28;20049;-71
2022/01/27 22:10:19;;;;;;;6.68;5.53;;;;;;;4.35;90.39;101082.41;10387793;28;20214;-72
2022/01/27 22:15:21;;;;;;;7.93;4.82;;;;;;;4.43;90.49;101085.63;10400353;28;20048;-71
2022/01/27 22:20:26;;;;;;;6.38;4.75;;;;;;;4.51;90.40;101088.78;10409065;28;20079;-71
2022/01/27 22:25:28;;;;;;;7.95;5.07;;;;;;;4.52;90.61;101085.22;10394181;28;20138;-72
2022/01/27 22:30:30;;;;;;;5.35;4.38;;;;;;;4.52;90.09;101089.63;10396511;28;20041;-71
2022/01/27 22:35:32;;;;;;;6.53;4.90;;;;;;;4.47;90.17;101110.91;10397234;28;20122;-69
2022/01/27 22:40:33;;;;;;;6.10;4.97;;;;;;;4.58;89.71;101126.31;10402938;28;20145;-71
2022/01/27 22:45:35;;;;;;;5.85;4.47;;;;;;;4.73;89.21;101124.81;10398844;28;20126;-71
2022/01/27 22:50:36;;;;;;;7.38;4.55;;;;;;;4.83;88.15;101120.84;10409697;28;20082;-70
2022/01/27 22:55:37;;;;;;;5.80;4.88;;;;;;;4.85;87.75;101129.56;10398784;28;20495;-73
2022/01/27 23:00:41;;;;;;;6.30;4.53;;;;;;;4.84;87.55;101133.09;10409520;28;20442;-70
2022/01/27 23:05:43;;;;;;;4.97;4.50;;;;;;;4.85;87.38;101134.84;10408437;28;20120;-73
2022/01/27 23:10:44;;;;;;;5.95;4.35;;;;;;;4.71;87.56;101138.03;10405478;28;20083;-71
2022/01/27 23:26:09;;;;;;;5.65;4.15;;;;;;;4.83;86.87;101154.28;10396848;28;20065;-72
2022/01/27 23:36:31;;;;;;;5.72;4.20;;;;;;;4.78;86.70;101165.03;10401787;28;20048;-72
2022/01/27 23:42:34;;;;;;;4.97;3.90;;;;;;;4.81;85.64;101164.91;10403001;28;20033;-71
2022/01/27 23:52:37;;;;;;;5.18;3.33;;;;;;;4.81;84.70;101174.59;10403345;28;20149;-70
2022/01/27 23:57:47;;;;;;;4.88;3.28;;;;;;;4.89;84.16;101186.53;10405305;28;20116;-70
